sensor_id;sensor_type;location;lat;lon;timestamp;temperature;humidity
46335;DHT22;32051;48.882;9.210;2024-03-02T08:53:05;8.60;99.90
46335;DHT22;32051;48.882;9.210;2024-03-02T08:55:31;8.60;99.90
46335;DHT22;32051;48.882;9.210;2024-03-02T08:57:57;8.80;99.90
46335;DHT22;32051;48.882;9.210;2024-03-02T09:00:23;9.00;99.90
46335;DHT22;32051;48.882;9.210;2024-03-02T09:02:49;9.20;99.90
46335;DHT22;32051;48.882;9.210;2024-03-02T09:15:01;9.90;99.90
46335;DHT22;32051;48.882;9.210;2024-03-02T09:17:27;9.90;99.90
46335;DHT22;32051;48.882;9.210;2024-03-02T09:19:52;10.00;99.90
46335;DHT22;32051;48.882;9.210;2024-03-02T09:22:19;10.10;99.90
46335;DHT22;32051;48.882;9.210;2024-03-02T09:24:44;10.20;99.90
46335;DHT22;32051;48.882;9.210;2024-03-02T09:27:10;10.30;99.90
46335;DHT22;32051;48.882;9.210;2024-03-02T09:29:36;10.40;99.90
46335;DHT22;32051;48.882;9.210;2024-03-02T09:32:02;10.50;99.90
46335;DHT22;32051;48.882;9.210;2024-03-02T09:34:28;10.60;99.90
46335;DHT22;32051;48.882;9.210;2024-03-02T09:36:53;10.70;99.90
46335;DHT22;32051;48.882;9.210;2024-03-02T09:41:45;11.00;99.90
46335;DHT22;32051;48.882;9.210;2024-03-02T09:44:12;11.10;99.90
46335;DHT22;32051;48.882;9.210;2024-03-02T09:46:38;11.30;99.90
46335;DHT22;32051;48.882;9.210;2024-03-02T09:49:04;11.30;99.90
46335;DHT22;32051;48.882;9.210;2024-03-02T09:51:30;11.40;99.90
46335;DHT22;32051;48.882;9.210;2024-03-02T09:53:56;11.40;99.90
46335;DHT22;32051;48.882;9.210;2024-03-02T09:56:22;11.40;99.90
46335;DHT22;32051;48.882;9.210;2024-03-02T09:58:48;11.50;99.90
46335;DHT22;32051;48.882;9.210;2024-03-02T10:01:14;11.50;99.90
46335;DHT22;32051;48.882;9.210;2024-03-02T10:03:40;11.60;99.90
46335;DHT22;32051;48.882;9.210;2024-03-02T10:06:22;11.70;99.90
46335;DHT22;32051;48.882;9.210;2024-03-02T10:08:48;11.80;99.90
46335;DHT22;32051;48.882;9.210;2024-03-02T10:11:31;11.90;99.90
46335;DHT22;32051;48.882;9.210;2024-03-02T10:14:11;12.00;99.90
46335;DHT22;32051;48.882;9.210;2024-03-02T10:16:42;12.20;99.90
46335;DHT22;32051;48.882;9.210;2024-03-02T10:19:22;12.30;99.90
46335;DHT22;32051;48.882;9.210;2024-03-02T10:31:40;13.00;99.90
46335;DHT22;32051;48.882;9.210;2024-03-02T10:34:07;13.10;99.90
46335;DHT22;32051;48.882;9.210;2024-03-02T10:36:34;13.30;99.90
46335;DHT22;32051;48.882;9.210;2024-03-02T10:39:04;13.40;99.90
46335;DHT22;32051;48.882;9.210;2024-03-02T10:49:03;14.20;99.90
46335;DHT22;32051;48.882;9.210;2024-03-02T10:56:30;15.80;99.90
46335;DHT22;32051;48.882;9.210;2024-03-02T11:26:48;20.10;94.20
46335;DHT22;32051;48.882;9.210;2024-03-02T13:38:14;28.20;55.90
46335;DHT22;32051;48.882;9.210;2024-03-02T13:40:40;28.00;56.30
46335;DHT22;32051;48.882;9.210;2024-03-02T13:43:06;27.50;55.60
46335;DHT22;32051;48.882;9.210;2024-03-02T13:45:32;27.30;56.00
46335;DHT22;32051;48.882;9.210;2024-03-02T13:47:57;27.30;56.30
46335;DHT22;32051;48.882;9.210;2024-03-02T13:50:23;27.40;57.30
46335;DHT22;32051;48.882;9.210;2024-03-02T14:00:08;27.50;58.10
46335;DHT22;32051;48.882;9.210;2024-03-02T14:02:37;27.10;59.90
46335;DHT22;32051;48.882;9.210;2024-03-02T14:09:58;23.00;60.80
46335;DHT22;32051;48.882;9.210;2024-03-02T14:12:23;24.00;62.00
46335;DHT22;32051;48.882;9.210;2024-03-02T14:14:49;23.00;62.80
46335;DHT22;32051;48.882;9.210;2024-03-02T14:22:08;20.40;70.80
46335;DHT22;32051;48.882;9.210;2024-03-02T14:24:34;20.20;71.40
46335;DHT22;32051;48.882;9.210;2024-03-02T14:27:00;20.00;72.90
46335;DHT22;32051;48.882;9.210;2024-03-02T14:29:28;19.80;73.10
46335;DHT22;32051;48.882;9.210;2024-03-02T14:31:54;19.50;76.00
46335;DHT22;32051;48.882;9.210;2024-03-02T14:34:20;19.30;74.00
46335;DHT22;32051;48.882;9.210;2024-03-02T14:36:45;19.00;74.50
46335;DHT22;32051;48.882;9.210;2024-03-02T14:39:11;18.60;77.80
46335;DHT22;32051;48.882;9.210;2024-03-02T14:41:37;18.40;79.20
46335;DHT22;32051;48.882;9.210;2024-03-02T14:44:03;18.10;80.70
46335;DHT22;32051;48.882;9.210;2024-03-02T14:46:29;18.00;79.90
46335;DHT22;32051;48.882;9.210;2024-03-02T14:48:55;17.90;81.40
46335;DHT22;32051;48.882;9.210;2024-03-02T14:51:20;17.70;81.30
46335;DHT22;32051;48.882;9.210;2024-03-02T14:53:46;17.60;81.20
46335;DHT22;32051;48.882;9.210;2024-03-02T14:56:12;17.50;82.60
46335;DHT22;32051;48.882;9.210;2024-03-02T14:58:39;17.40;84.40
46335;DHT22;32051;48.882;9.210;2024-03-02T15:01:05;17.30;84.60
46335;DHT22;32051;48.882;9.210;2024-03-02T15:03:35;17.20;82.60
46335;DHT22;32051;48.882;9.210;2024-03-02T15:06:02;17.00;83.00
46335;DHT22;32051;48.882;9.210;2024-03-02T15:08:29;17.00;83.60
46335;DHT22;32051;48.882;9.210;2024-03-02T15:10:55;16.90;86.60
